Time;durP1;ratioP1;P1;durP2;ratioP2;P2;SDS_P1;SDS_P2;PMS_P1;PMS_P2;Temp;Humidity;BMP_temperature;BMP_pressure;BME280_temperature;BME280_humidity;BME280_pressure;Samples;Min_cycle;Max_cycle;Signal;HPM_P1;HPM_P2
2022/05/06 00:01:39;;;;;;;9.43;8.53;;;;;;;15.90;56.43;95103.81;5065045;28;20419;-73
2022/05/06 00:04:06;;;;;;;12.20;9.97;;;;;;;15.90;56.78;95108.28;5055832;28;20480;-73
2022/05/06 00:06:32;;;;;;;8.83;8.13;;;;;;;15.88;56.64;95105.03;5061568;28;20451;-73
2022/05/06 00:08:58;;;;;;;9.17;8.33;;;;;;;15.80;57.12;95103.47;5063803;28;20435;-73
2022/05/06 00:11:25;;;;;;;9.53;8.73;;;;;;;15.91;56.70;95100.13;5064177;28;20508;-73
2022/05/06 00:13:52;;;;;;;10.33;9.30;;;;;;;15.94;57.02;95104.19;5059001;28;20917;-73
2022/05/06 00:16:22;;;;;;;11.40;10.40;;;;;;;15.91;56.74;95104.59;5064908;28;20424;-74
2022/05/06 00:18:48;;;;;;;10.70;9.70;;;;;;;15.90;57.06;95109.09;5060534;28;20431;-72
2022/05/06 00:21:14;;;;;;;11.80;10.60;;;;;;;15.86;57.43;95112.34;5056078;28;20448;-72
2022/05/06 00:23:40;;;;;;;10.90;9.90;;;;;;;15.12;60.05;95123.38;5055978;28;20461;-73
2022/05/06 00:26:05;;;;;;;10.90;10.10;;;;;;;15.53;58.35;95123.94;5063536;28;20216;-72
2022/05/06 00:28:31;;;;;;;11.13;10.13;;;;;;;15.64;58.29;95119.81;5060759;28;20519;-73
2022/05/06 00:30:57;;;;;;;11.67;10.67;;;;;;;15.68;58.38;95118.34;5060524;28;20218;-73
2022/05/06 00:33:26;;;;;;;9.87;8.90;;;;;;;16.08;56.71;95118.88;5062563;28;20171;-73
2022/05/06 00:35:59;;;;;;;9.17;8.30;;;;;;;15.56;58.30;95126.16;5060668;28;20421;-73
2022/05/06 00:38:25;;;;;;;10.60;9.57;;;;;;;15.46;58.31;95124.00;5064047;28;20432;-73
2022/05/06 00:40:52;;;;;;;10.57;9.53;;;;;;;15.43;58.32;95119.94;5076693;28;20445;-73
2022/05/06 00:43:19;;;;;;;10.40;9.40;;;;;;;15.51;58.83;95115.44;5059605;28;20464;-73
2022/05/06 00:45:48;;;;;;;9.80;8.90;;;;;;;15.42;58.96;95117.50;5063848;28;20518;-72
2022/05/06 00:48:15;;;;;;;10.10;9.10;;;;;;;15.53;58.27;95129.22;5060073;28;20466;-73
2022/05/06 00:50:43;;;;;;;11.07;9.20;;;;;;;15.49;58.33;95117.47;5064152;28;20420;-73
2022/05/06 00:53:09;;;;;;;13.33;9.17;;;;;;;15.70;57.80;95116.31;5064738;28;20441;-73
2022/05/06 00:55:36;;;;;;;10.37;9.47;;;;;;;15.39;59.46;95126.66;5064998;28;20419;-72
2022/05/06 00:58:02;;;;;;;10.27;9.27;;;;;;;15.42;58.62;95128.06;5052488;28;20273;-73
2022/05/06 01:00:29;;;;;;;10.67;9.33;;;;;;;15.34;59.42;95131.75;5063426;28;20424;-72
2022/05/06 01:02:55;;;;;;;10.30;9.37;;;;;;;15.32;59.10;95133.78;5062756;28;20464;-72
2022/05/06 01:05:22;;;;;;;11.60;9.80;;;;;;;15.39;59.20;95131.94;5064225;28;20417;-73
2022/05/06 01:07:49;;;;;;;13.93;9.77;;;;;;;15.35;59.55;95133.38;5064778;28;20181;-72
2022/05/06 01:10:16;;;;;;;11.67;10.57;;;;;;;15.25;59.27;95127.75;5057908;28;20505;-72
2022/05/06 01:12:41;;;;;;;10.93;9.90;;;;;;;15.34;59.44;95131.75;5043263;28;20394;-73
2022/05/06 01:15:27;;;;;;;12.50;8.87;;;;;;;15.25;58.89;95133.00;5060154;28;20491;-72
2022/05/06 01:17:55;;;;;;;10.70;9.60;;;;;;;15.29;58.65;95134.22;5064180;28;20201;-72
2022/05/06 01:20:22;;;;;;;10.73;9.63;;;;;;;15.08;59.63;95123.97;5062533;28;20494;-73
2022/05/06 01:22:54;;;;;;;10.37;9.37;;;;;;;15.50;58.13;95132.25;5055034;28;20462;-72
2022/05/06 01:25:23;;;;;;;9.63;8.63;;;;;;;14.97;59.53;95131.53;5044335;28;20425;-72
2022/05/06 01:28:01;;;;;;;9.77;8.87;;;;;;;15.12;59.64;95123.38;5047297;28;20450;-72
2022/05/06 01:30:32;;;;;;;9.17;8.37;;;;;;;15.06;59.44;95120.75;5045705;28;20492;-73
2022/05/06 01:32:59;;;;;;;10.30;9.30;;;;;;;15.23;58.97;95120.06;5063910;28;20421;-72
2022/05/06 01:35:28;;;;;;;9.63;8.73;;;;;;;15.28;58.98;95123.88;5059120;28;20466;-72
2022/05/06 01:37:56;;;;;;;9.63;8.70;;;;;;;15.25;59.23;95117.19;5064007;28;21176;-72
2022/05/06 01:40:24;;;;;;;10.30;9.43;;;;;;;15.23;58.95;95111.31;5063845;28;20523;-72
2022/05/06 01:42:53;;;;;;;16.83;10.03;;;;;;;15.09;59.33;95112.44;5064178;28;20875;-72
2022/05/06 01:45:22;;;;;;;10.13;9.23;;;;;;;14.98;59.93;95114.69;5055936;28;20427;-73
2022/05/06 01:47:51;;;;;;;11.73;9.13;;;;;;;15.19;58.99;95110.13;5063796;28;20533;-73
2022/05/06 01:50:19;;;;;;;10.43;8.37;;;;;;;15.43;58.06;95119.13;5064209;28;20486;-73
2022/05/06 01:52:49;;;;;;;9.90;9.00;;;;;;;15.20;59.36;95109.13;5063413;28;20439;-72
2022/05/06 01:55:15;;;;;;;13.80;9.20;;;;;;;15.08;59.23;95113.44;5059294;28;20540;-73
2022/05/06 01:57:41;;;;;;;11.50;10.10;;;;;;;14.91;59.42;95113.94;5072949;28;20447;-73
2022/05/06 02:00:07;;;;;;;10.63;8.90;;;;;;;14.87;60.01;95115.34;5064578;28;20171;-72
2022/05/06 02:02:33;;;;;;;9.20;8.40;;;;;;;14.91;60.17;95119.22;5063656;28;20401;-73
2022/05/06 02:05:17;;;;;;;10.73;9.50;;;;;;;14.83;60.47;95119.41;5044029;28;20504;-73
2022/05/06 02:07:48;;;;;;;10.67;9.57;;;;;;;14.76;60.71;95116.00;5044680;28;20168;-73
2022/05/06 02:10:16;;;;;;;8.67;7.93;;;;;;;14.89;60.32;95121.25;5057134;28;20804;-73
2022/05/06 02:12:42;;;;;;;9.27;8.30;;;;;;;14.96;59.89;95121.19;5061644;28;20411;-72
2022/05/06 02:15:08;;;;;;;11.13;7.93;;;;;;;14.84;59.68;95123.69;5065058;28;20433;-72
2022/05/06 02:17:34;;;;;;;8.67;7.97;;;;;;;14.81;60.37;95121.47;5067416;28;20174;-72
2022/05/06 02:19:59;;;;;;;10.43;9.50;;;;;;;15.12;58.91;95122.53;5067665;28;20460;-72
2022/05/06 02:22:27;;;;;;;8.93;8.00;;;;;;;14.80;60.57;95127.75;5056811;28;20171;-73
2022/05/06 02:24:55;;;;;;;9.97;8.90;;;;;;;14.78;59.69;95130.59;5067128;28;20167;-72
2022/05/06 02:27:21;;;;;;;10.53;8.70;;;;;;;14.94;59.80;95120.59;5067658;28;20405;-71
2022/05/06 02:35:15;;;;;;;10.07;9.07;;;;;;;14.91;60.50;95121.84;5065910;28;20443;-72
2022/05/06 02:40:25;;;;;;;7.67;6.97;;;;;;;14.75;59.95;95122.31;5055003;28;20194;-72
2022/05/06 02:42:50;;;;;;;9.10;8.20;;;;;;;14.76;60.59;95116.00;5054049;28;20461;-72
2022/05/06 02:45:15;;;;;;;10.83;9.60;;;;;;;14.86;59.60;95121.66;5067177;28;20170;-73
2022/05/06 02:47:41;;;;;;;9.70;8.70;;;;;;;14.84;59.93;95121.06;5066804;28;20258;-72
2022/05/06 02:50:07;;;;;;;8.33;7.63;;;;;;;14.79;59.94;95126.13;5066713;28;20179;-72
2022/05/06 02:52:32;;;;;;;9.70;8.80;;;;;;;14.71;60.66;95121.09;5049496;28;20175;-72
2022/05/06 02:54:58;;;;;;;8.93;8.03;;;;;;;14.58;60.44;95117.47;5048903;28;20402;-72
2022/05/06 02:57:23;;;;;;;9.43;7.80;;;;;;;14.61;60.41;95122.34;5081345;28;20277;-72
2022/05/06 02:59:49;;;;;;;10.50;9.50;;;;;;;14.74;60.28;95120.66;5066471;28;20179;-73
2022/05/06 03:02:14;;;;;;;9.93;9.03;;;;;;;14.69;60.29;95128.41;5066787;28;20166;-72
2022/05/06 03:04:41;;;;;;;9.53;8.63;;;;;;;14.62;59.87;95128.41;5059621;28;20705;-72
2022/05/06 03:07:08;;;;;;;9.20;8.20;;;;;;;14.64;60.92;95129.84;5067142;28;20174;-72
2022/05/06 03:09:35;;;;;;;9.73;8.73;;;;;;;14.66;60.41;95128.81;5049230;28;20434;-72
2022/05/06 03:12:00;;;;;;;9.53;8.63;;;;;;;14.79;60.07;95128.78;5046616;28;20414;-73
2022/05/06 03:14:26;;;;;;;8.20;7.50;;;;;;;14.76;60.41;95123.91;5046926;28;20410;-73
2022/05/06 03:16:51;;;;;;;12.27;8.67;;;;;;;14.75;60.23;95128.38;5060412;28;20194;-73
2022/05/06 03:19:17;;;;;;;8.83;8.13;;;;;;;14.97;59.43;95123.63;5067357;28;20253;-72
2022/05/06 03:21:50;;;;;;;11.97;8.53;;;;;;;15.08;58.99;95118.72;5066419;28;20182;-72
2022/05/06 03:24:16;;;;;;;9.43;8.60;;;;;;;15.14;59.29;95131.03;5066452;28;20263;-72
2022/05/06 03:26:42;;;;;;;9.60;8.60;;;;;;;15.20;58.84;95127.59;5063076;28;20428;-73
2022/05/06 03:29:07;;;;;;;9.53;8.30;;;;;;;15.18;59.06;95134.91;5061903;28;20473;-73
2022/05/06 03:31:33;;;;;;;11.10;10.10;;;;;;;15.23;58.77;95129.78;5065885;28;20178;-72
2022/05/06 03:33:59;;;;;;;10.63;9.73;;;;;;;14.93;60.34;95145.34;5064123;28;20176;-74
2022/05/06 03:36:24;;;;;;;9.97;9.00;;;;;;;14.82;60.56;95141.53;5060248;28;20179;-72
2022/05/06 03:38:50;;;;;;;9.87;8.97;;;;;;;14.52;61.17;95149.88;5066472;28;20476;-72
2022/05/06 03:41:15;;;;;;;11.43;10.30;;;;;;;14.68;60.90;95155.75;5067924;28;20178;-72
2022/05/06 03:43:41;;;;;;;12.77;8.80;;;;;;;14.68;60.94;95153.13;5066893;28;20230;-72
2022/05/06 03:46:06;;;;;;;9.27;8.40;;;;;;;14.67;60.62;95151.53;5066552;28;20173;-72
2022/05/06 03:48:34;;;;;;;16.80;10.33;;;;;;;14.51;60.97;95164.06;5064861;28;20183;-73
2022/05/06 03:53:44;;;;;;;10.90;9.93;;;;;;;14.77;60.07;95162.41;5065547;28;20539;-73
2022/05/06 03:56:09;;;;;;;10.37;9.40;;;;;;;14.79;60.50;95165.66;5066615;28;20441;-73
2022/05/06 03:58:35;;;;;;;13.03;8.97;;;;;;;14.49;61.47;95171.34;5066023;28;20178;-73
2022/05/06 04:01:02;;;;;;;12.63;9.70;;;;;;;14.38;61.52;95175.44;5060926;28;20174;-73
2022/05/06 04:03:28;;;;;;;11.90;10.73;;;;;;;14.50;61.62;95175.63;5064431;28;20202;-73
2022/05/06 04:05:54;;;;;;;10.70;9.73;;;;;;;14.80;60.76;95176.00;5065409;28;20423;-72
2022/05/06 04:08:19;;;;;;;12.60;11.50;;;;;;;14.48;61.29;95180.28;5065454;28;20508;-73
2022/05/06 04:10:45;;;;;;;11.03;10.00;;;;;;;14.68;61.06;95174.19;5064022;28;20174;-73
2022/05/06 04:13:10;;;;;;;12.00;10.70;;;;;;;14.79;61.19;95171.72;5060644;28;20267;-73
2022/05/06 04:15:38;;;;;;;11.37;10.37;;;;;;;14.72;61.46;95170.97;5045148;28;20241;-73
2022/05/06 04:18:04;;;;;;;13.70;12.20;;;;;;;14.87;60.76;95169.88;5045305;28;20175;-73
2022/05/06 04:26:02;;;;;;;12.27;11.30;;;;;;;14.72;60.34;95178.03;5065043;28;20416;-72
2022/05/06 04:28:29;;;;;;;15.93;12.73;;;;;;;14.59;61.10;95182.31;5064233;28;20429;-73
2022/05/06 04:30:55;;;;;;;12.70;11.53;;;;;;;14.73;61.34;95183.09;5065120;28;20453;-72
2022/05/06 04:33:24;;;;;;;13.73;12.63;;;;;;;14.42;62.85;95189.03;5056789;28;20443;-73
2022/05/06 04:35:51;;;;;;;12.80;11.50;;;;;;;14.76;61.59;95198.50;5063749;28;20424;-72
2022/05/06 04:38:17;;;;;;;14.90;12.20;;;;;;;14.93;60.60;95193.59;5064471;28;20453;-73
2022/05/06 04:40:43;;;;;;;16.73;12.40;;;;;;;14.93;60.84;95198.88;5064855;28;20431;-73
2022/05/06 04:43:09;;;;;;;13.50;11.10;;;;;;;15.20;60.62;95193.50;5053591;28;20882;-73
2022/05/06 04:45:38;;;;;;;13.47;12.27;;;;;;;15.09;60.83;95188.88;5059385;28;20442;-73
2022/05/06 04:48:05;;;;;;;12.87;11.77;;;;;;;15.02;60.84;95192.34;5044704;28;20910;-73
2022/05/06 04:50:32;;;;;;;13.10;11.80;;;;;;;15.03;60.58;95191.31;5044229;28;20442;-72
2022/05/06 04:52:58;;;;;;;14.70;13.30;;;;;;;15.28;59.95;95193.25;5058470;28;20499;-73
2022/05/06 04:55:23;;;;;;;17.27;12.93;;;;;;;15.31;59.88;95194.66;5064583;28;20417;-72
2022/05/06 04:57:49;;;;;;;13.73;12.50;;;;;;;15.69;59.02;95194.69;5064494;28;20664;-73
2022/05/06 05:00:15;;;;;;;13.63;12.33;;;;;;;15.88;58.85;95192.13;5064699;28;20182;-73
2022/05/06 05:02:40;;;;;;;14.70;13.43;;;;;;;15.09;60.02;95204.69;5061410;28;20311;-73
2022/05/06 05:05:06;;;;;;;15.30;13.80;;;;;;;15.10;60.62;95203.66;5060246;28;20167;-72
2022/05/06 05:07:32;;;;;;;15.80;14.23;;;;;;;15.08;60.86;95208.34;5051231;28;20167;-73
2022/05/06 05:09:57;;;;;;;15.30;14.00;;;;;;;15.51;59.62;95215.66;5064066;28;20558;-72
2022/05/06 05:12:24;;;;;;;16.67;13.70;;;;;;;15.89;58.72;95218.31;5052107;28;20172;-73
2022/05/06 05:14:51;;;;;;;14.37;12.87;;;;;;;16.63;56.74;95212.47;5044633;28;20244;-72
2022/05/06 05:17:16;;;;;;;17.00;13.70;;;;;;;16.27;56.79;95209.50;5044095;28;20414;-73
2022/05/06 05:19:43;;;;;;;15.20;13.90;;;;;;;15.57;58.42;95218.25;5054934;28;20468;-72
2022/05/06 05:22:09;;;;;;;14.20;13.00;;;;;;;16.20;57.16;95209.56;5061756;28;20178;-72
2022/05/06 05:24:35;;;;;;;16.47;14.97;;;;;;;16.57;56.02;95214.94;5061337;28;20494;-73
2022/05/06 05:27:01;;;;;;;16.10;13.77;;;;;;;16.62;55.83;95208.19;5063263;28;20478;-73
2022/05/06 05:29:27;;;;;;;16.90;14.27;;;;;;;16.64;55.35;95206.13;5059453;28;20477;-73
2022/05/06 05:31:52;;;;;;;17.40;13.83;;;;;;;16.64;55.35;95211.44;5062259;28;20209;-73
2022/05/06 05:34:18;;;;;;;16.93;14.87;;;;;;;16.29;56.70;95209.31;5063151;28;20179;-73
2022/05/06 05:36:44;;;;;;;16.50;14.73;;;;;;;16.48;56.34;95210.97;5062964;28;20186;-72
2022/05/06 05:39:11;;;;;;;14.73;13.33;;;;;;;16.51;56.31;95210.53;5063669;28;20189;-73
2022/05/06 05:41:37;;;;;;;16.87;15.17;;;;;;;16.31;56.85;95212.53;5061981;28;20504;-73
2022/05/06 05:49:30;;;;;;;14.53;13.20;;;;;;;17.73;51.96;95201.84;5044662;28;20484;-73
2022/05/06 05:51:56;;;;;;;13.57;12.27;;;;;;;17.60;51.97;95202.03;5061846;28;20421;-73
2022/05/06 05:54:22;;;;;;;15.90;14.50;;;;;;;18.28;51.45;95202.69;5067974;28;20181;-74
2022/05/06 05:56:47;;;;;;;15.83;14.20;;;;;;;18.70;50.02;95197.28;5066193;28;20423;-73
2022/05/06 05:59:13;;;;;;;13.40;12.30;;;;;;;19.13;49.06;95204.09;5049508;28;20183;-74
2022/05/06 06:01:38;;;;;;;14.63;13.17;;;;;;;19.19;47.68;95197.84;5051170;28;20234;-73
2022/05/06 06:04:05;;;;;;;16.03;13.57;;;;;;;19.69;47.43;95201.72;5065682;28;20293;-73
2022/05/06 06:06:31;;;;;;;15.40;13.80;;;;;;;19.98;46.73;95199.09;5065750;28;20242;-73
2022/05/06 06:08:56;;;;;;;16.90;12.37;;;;;;;19.57;46.69;95204.41;5066003;28;20500;-72
2022/05/06 06:11:22;;;;;;;14.60;13.00;;;;;;;19.95;45.87;95200.34;5054150;28;20179;-72
2022/05/06 06:13:47;;;;;;;14.40;12.73;;;;;;;19.41;47.02;95205.19;5062546;28;20202;-73
2022/05/06 06:16:14;;;;;;;13.20;12.00;;;;;;;19.65;46.05;95195.25;5050091;28;20230;-73
2022/05/06 06:18:39;;;;;;;12.23;11.13;;;;;;;19.44;46.62;95200.19;5065921;28;20192;-72
2022/05/06 06:21:06;;;;;;;12.60;11.33;;;;;;;18.97;47.59;95202.16;5065831;28;20445;-73
2022/05/06 06:23:32;;;;;;;17.67;12.67;;;;;;;19.17;46.83;95196.47;5065926;28;20597;-73
2022/05/06 06:25:58;;;;;;;13.53;11.10;;;;;;;19.88;45.76;95205.00;5066918;28;20413;-73
2022/05/06 06:28:23;;;;;;;14.47;12.93;;;;;;;20.38;44.90;95198.94;5067328;28;20253;-72
2022/05/06 06:30:49;;;;;;;12.30;10.73;;;;;;;20.56;44.13;95199.75;5047170;28;20231;-72
2022/05/06 06:33:15;;;;;;;12.20;11.30;;;;;;;20.07;45.20;95203.78;5059238;28;20201;-72
2022/05/06 06:35:41;;;;;;;12.87;11.67;;;;;;;20.17;44.70;95197.00;5065990;28;20409;-72
2022/05/06 06:38:06;;;;;;;26.07;12.83;;;;;;;20.61;44.29;95191.88;5057298;28;20950;-72
2022/05/06 06:40:32;;;;;;;21.27;11.60;;;;;;;20.81;43.45;95186.84;5063775;28;20172;-73
2022/05/06 06:43:04;;;;;;;12.63;11.53;;;;;;;20.89;43.60;95192.78;5066485;28;20209;-72
2022/05/06 06:45:31;;;;;;;12.60;11.50;;;;;;;21.07;42.81;95192.50;5067095;28;20173;-72
2022/05/06 06:47:59;;;;;;;11.73;10.57;;;;;;;21.10;42.86;95188.56;5066671;28;20459;-72
2022/05/06 06:50:25;;;;;;;12.33;11.33;;;;;;;20.49;44.41;95191.94;5065687;28;20959;-72
2022/05/06 06:52:51;;;;;;;11.90;10.33;;;;;;;21.14;43.36;95200.31;5065282;28;20488;-72
2022/05/06 06:55:17;;;;;;;14.30;13.00;;;;;;;21.39;42.70;95187.31;5065226;28;20166;-72
2022/05/06 06:57:42;;;;;;;14.83;12.67;;;;;;;21.63;42.34;95185.22;5068523;28;20432;-72
2022/05/06 07:00:10;;;;;;;12.33;11.17;;;;;;;21.54;42.25;95189.38;5055232;28;20433;-72
2022/05/06 07:02:45;;;;;;;18.33;12.43;;;;;;;21.75;42.06;95189.59;5057347;28;20178;-72
2022/05/06 07:05:11;;;;;;;13.57;12.10;;;;;;;22.18;41.06;95182.53;5066260;28;20397;-72
2022/05/06 07:13:04;;;;;;;17.77;11.67;;;;;;;21.37;42.25;95197.41;5066020;28;20768;-73
2022/05/06 07:15:31;;;;;;;12.10;10.63;;;;;;;21.54;41.43;95186.69;5065609;28;20449;-72
2022/05/06 07:17:58;;;;;;;10.87;9.80;;;;;;;20.37;43.61;95192.00;5057871;28;20632;-72
2022/05/06 07:20:23;;;;;;;15.33;10.23;;;;;;;21.18;41.99;95194.25;5057464;28;20444;-72
2022/05/06 07:22:49;;;;;;;12.63;11.33;;;;;;;21.61;40.93;95194.50;5054604;28;20527;-72
2022/05/06 07:25:14;;;;;;;12.13;10.93;;;;;;;21.91;41.19;95193.19;5064763;28;20182;-72
2022/05/06 07:27:40;;;;;;;11.17;9.90;;;;;;;21.88;40.37;95189.19;5065708;28;20178;-72
2022/05/06 07:30:09;;;;;;;11.77;10.13;;;;;;;22.02;40.01;95187.72;5065317;28;20627;-72
2022/05/06 07:32:34;;;;;;;11.53;9.60;;;;;;;21.46;40.99;95179.16;5064460;28;20186;-72
2022/05/06 07:35:01;;;;;;;12.43;9.10;;;;;;;21.67;40.83;95184.72;5065896;28;20466;-72
2022/05/06 07:37:33;;;;;;;10.50;9.40;;;;;;;21.97;39.83;95179.69;5056911;28;20178;-72
2022/05/06 07:39:59;;;;;;;10.10;9.10;;;;;;;22.10;39.92;95180.31;5048872;28;20416;-72
2022/05/06 07:42:25;;;;;;;13.70;9.63;;;;;;;22.26;39.33;95186.63;5065321;28;20424;-72
2022/05/06 07:44:50;;;;;;;13.43;9.00;;;;;;;21.83;40.19;95189.94;5065523;28;20453;-73
2022/05/06 07:47:16;;;;;;;27.60;10.30;;;;;;;22.34;39.18;95189.59;5046109;28;20186;-73
2022/05/06 07:49:41;;;;;;;12.50;8.40;;;;;;;23.08;38.18;95184.50;5056619;28;20246;-72
2022/05/06 07:52:07;;;;;;;8.53;7.80;;;;;;;22.91;38.20;95176.66;5064110;28;20236;-73
2022/05/06 07:54:32;;;;;;;10.43;9.33;;;;;;;23.56;37.05;95180.69;5064655;28;20189;-72
2022/05/06 07:56:58;;;;;;;9.30;8.37;;;;;;;23.15;37.62;95185.88;5065440;28;20258;-73
2022/05/06 07:59:23;;;;;;;7.53;7.03;;;;;;;23.40;37.32;95184.38;5070077;28;20254;-73
2022/05/06 08:04:33;;;;;;;7.73;7.03;;;;;;;23.85;36.35;95184.81;5064728;28;20213;-72
2022/05/06 08:06:59;;;;;;;8.40;7.53;;;;;;;23.44;36.46;95174.78;5063320;28;22222;-72
2022/05/06 08:09:25;;;;;;;9.00;8.20;;;;;;;23.31;37.41;95183.28;5064090;28;20206;-73
2022/05/06 08:11:51;;;;;;;9.13;6.70;;;;;;;23.19;37.15;95178.16;5060282;28;20421;-73
2022/05/06 08:14:18;;;;;;;8.90;8.20;;;;;;;23.05;37.83;95177.84;5044838;28;20179;-72
2022/05/06 08:16:44;;;;;;;11.27;9.10;;;;;;;22.93;37.96;95178.00;5052895;28;20420;-72
2022/05/06 08:19:10;;;;;;;9.43;8.43;;;;;;;23.37;37.23;95166.19;5063182;28;20449;-72
2022/05/06 08:21:36;;;;;;;7.30;6.57;;;;;;;23.21;37.26;95172.56;5062735;28;20499;-72
2022/05/06 08:24:02;;;;;;;7.67;7.07;;;;;;;21.34;41.15;95167.78;5059291;28;20528;-72
2022/05/06 08:26:27;;;;;;;9.77;9.00;;;;;;;21.50;41.50;95172.28;5059902;28;20174;-73
2022/05/06 08:28:53;;;;;;;8.57;7.77;;;;;;;22.99;38.67;95173.47;5061044;28;20483;-72
2022/05/06 08:31:18;;;;;;;11.23;7.90;;;;;;;23.47;37.55;95171.59;5059101;28;20185;-72
2022/05/06 08:33:43;;;;;;;8.73;7.83;;;;;;;23.71;37.12;95176.44;5056331;28;20249;-72
2022/05/06 08:36:09;;;;;;;9.43;7.50;;;;;;;24.19;36.19;95168.25;5059058;28;20553;-72
2022/05/06 08:38:35;;;;;;;7.40;6.80;;;;;;;24.24;36.46;95169.06;5065905;28;20240;-72
2022/05/06 08:41:01;;;;;;;9.50;7.17;;;;;;;23.46;37.66;95161.94;5064742;28;20205;-72
2022/05/06 08:43:26;;;;;;;7.13;6.50;;;;;;;22.38;39.30;95160.56;5064150;28;20268;-71
2022/05/06 08:51:31;;;;;;;9.80;6.57;;;;;;;23.71;36.90;95169.25;5058125;28;20481;-71
2022/05/06 08:53:57;;;;;;;8.10;7.00;;;;;;;23.50;37.69;95157.69;5064216;28;20478;-72
2022/05/06 08:56:23;;;;;;;8.90;7.33;;;;;;;23.69;37.59;95163.34;5062495;28;20492;-72
2022/05/06 08:58:48;;;;;;;10.80;6.03;;;;;;;23.78;36.78;95158.28;5063299;28;20186;-72
2022/05/06 09:01:16;;;;;;;5.90;5.50;;;;;;;23.68;37.13;95160.97;5061556;28;20250;-72
2022/05/06 09:03:43;;;;;;;7.93;7.13;;;;;;;23.76;37.86;95157.75;5060928;28;20213;-72
2022/05/06 09:06:25;;;;;;;7.00;6.50;;;;;;;23.87;37.40;95162.09;5061783;28;20424;-71
2022/05/06 09:08:52;;;;;;;6.67;6.27;;;;;;;24.42;36.44;95158.91;5060701;28;20427;-72
2022/05/06 09:14:04;;;;;;;6.93;6.43;;;;;;;24.05;36.63;95159.97;5060347;28;20411;-72
2022/05/06 09:16:42;;;;;;;6.63;6.23;;;;;;;24.11;36.61;95142.84;5058893;28;20512;-72
2022/05/06 09:19:09;;;;;;;6.40;5.93;;;;;;;24.71;35.27;95149.22;5061840;28;20198;-72
2022/05/06 09:21:35;;;;;;;7.97;6.37;;;;;;;24.46;35.54;95143.91;5052219;28;20440;-71
2022/05/06 09:24:17;;;;;;;6.40;5.93;;;;;;;24.55;35.46;95142.31;5067572;28;20455;-72
2022/05/06 09:27:04;;;;;;;6.97;5.87;;;;;;;24.20;35.75;95135.88;5061364;28;20190;-72
2022/05/06 09:29:31;;;;;;;6.20;5.80;;;;;;;23.58;36.34;95137.66;5064517;28;20456;-73
2022/05/06 09:32:22;;;;;;;6.43;6.03;;;;;;;24.62;34.70;95124.09;5064892;28;20425;-73
2022/05/06 09:35:07;;;;;;;6.43;6.00;;;;;;;24.60;34.81;95120.88;5064172;28;20495;-73
2022/05/06 09:37:35;;;;;;;6.93;6.27;;;;;;;25.19;34.05;95115.88;5065411;28;20435;-72
2022/05/06 09:40:09;;;;;;;6.20;5.57;;;;;;;24.88;34.60;95124.03;5063638;28;20443;-73
2022/05/06 09:42:37;;;;;;;7.43;6.67;;;;;;;24.55;34.72;95111.00;5065482;28;20484;-74
2022/05/06 09:45:04;;;;;;;16.33;7.00;;;;;;;25.11;33.55;95117.25;5068318;28;20444;-75
2022/05/06 09:47:32;;;;;;;6.47;6.00;;;;;;;25.32;33.12;95118.78;5068135;28;20432;-80
2022/05/06 09:53:09;;;;;;;6.40;5.97;;;;;;;25.27;33.40;95109.97;5048035;28;20425;-78
2022/05/06 09:55:36;;;;;;;6.73;6.00;;;;;;;25.16;32.99;95111.09;5072242;28;20465;-74
2022/05/06 09:58:02;;;;;;;5.63;5.23;;;;;;;25.16;33.16;95117.25;5067924;28;20409;-75
2022/05/06 10:00:28;;;;;;;6.43;5.30;;;;;;;24.37;33.99;95114.22;5060113;28;20433;-74
2022/05/06 10:02:57;;;;;;;6.00;5.60;;;;;;;24.75;33.12;95120.84;5067355;28;20440;-73
2022/05/06 10:05:24;;;;;;;6.47;5.87;;;;;;;25.44;31.79;95113.13;5063540;28;20197;-73
2022/05/06 10:07:55;;;;;;;6.67;6.17;;;;;;;25.47;32.31;95112.53;5066439;28;20405;-73
2022/05/06 10:10:28;;;;;;;11.73;6.40;;;;;;;24.89;32.99;95112.22;5060000;28;20760;-74
2022/05/06 10:13:01;;;;;;;5.47;5.07;;;;;;;24.61;32.94;95106.44;5065612;28;20414;-73
2022/05/06 10:15:30;;;;;;;6.53;5.90;;;;;;;24.36;33.06;95107.28;5065351;28;20440;-73
2022/05/06 10:18:07;;;;;;;5.73;5.33;;;;;;;24.45;33.21;95100.28;5064926;28;20425;-74
2022/05/06 10:20:35;;;;;;;6.43;6.00;;;;;;;24.79;32.68;95104.25;5062999;28;20424;-74
2022/05/06 10:23:12;;;;;;;7.00;6.30;;;;;;;25.10;32.02;95105.75;5057085;28;20449;-74
2022/05/06 10:25:40;;;;;;;7.27;6.20;;;;;;;24.14;33.07;95110.22;5066250;28;20432;-73
2022/05/06 10:34:18;;;;;;;6.30;5.83;;;;;;;25.06;31.37;95104.69;5058213;28;20395;-74
2022/05/06 10:36:51;;;;;;;6.27;5.80;;;;;;;25.27;31.53;95093.88;5059877;28;20425;-73
2022/05/06 10:39:24;;;;;;;6.37;5.90;;;;;;;25.63;30.65;95086.47;5066092;28;20514;-73
2022/05/06 10:42:00;;;;;;;24.03;7.30;;;;;;;25.43;31.20;95089.25;5060470;28;20440;-75
2022/05/06 10:44:42;;;;;;;5.63;5.23;;;;;;;25.05;30.98;95083.53;5066058;28;20515;-75
2022/05/06 10:47:13;;;;;;;6.07;5.70;;;;;;;25.43;30.71;95081.22;5067691;28;20776;-74
2022/05/06 10:49:38;;;;;;;6.87;5.17;;;;;;;25.27;30.50;95083.16;5054140;28;20410;-75
2022/05/06 10:52:24;;;;;;;4.77;4.47;;;;;;;25.21;30.55;95076.22;5061024;28;20484;-72
2022/05/06 10:55:01;;;;;;;6.50;5.50;;;;;;;25.90;30.10;95080.63;5066072;28;20205;-74
2022/05/06 10:57:48;;;;;;;5.10;4.80;;;;;;;25.37;30.13;95077.78;5064603;28;20902;-74
2022/05/06 11:00:14;;;;;;;7.70;5.30;;;;;;;26.14;28.94;95071.06;5065854;28;20447;-73
2022/05/06 11:02:40;;;;;;;4.97;4.67;;;;;;;25.00;30.10;95070.94;5066951;28;20405;-73
2022/05/06 11:05:07;;;;;;;5.37;4.93;;;;;;;25.41;29.86;95073.44;5067091;28;20433;-74
2022/05/06 11:07:34;;;;;;;6.03;5.50;;;;;;;25.20;29.89;95069.28;5056911;28;20932;-73
2022/05/06 11:10:07;;;;;;;6.87;5.03;;;;;;;25.18;29.71;95074.09;5067232;28;20480;-74
2022/05/06 11:12:53;;;;;;;5.43;4.93;;;;;;;25.99;29.17;95069.31;5065120;28;20479;-73
2022/05/06 11:15:31;;;;;;;7.37;5.07;;;;;;;25.54;29.00;95057.84;5066757;28;20495;-75
2022/05/06 11:17:59;;;;;;;4.77;4.37;;;;;;;25.87;29.27;95058.91;5069103;28;20421;-73
2022/05/06 11:20:31;;;;;;;5.33;5.03;;;;;;;26.10;28.96;95057.41;5066593;28;20440;-75
2022/05/06 11:23:04;;;;;;;4.53;4.13;;;;;;;25.36;29.45;95052.03;5067135;28;20795;-73
2022/05/06 11:25:38;;;;;;;4.90;4.50;;;;;;;25.66;29.36;95044.88;5066885;28;20436;-72
2022/05/06 11:28:09;;;;;;;3.83;3.47;;;;;;;25.98;28.52;95055.09;5066745;28;20784;-73
2022/05/06 11:30:35;;;;;;;3.70;3.50;;;;;;;25.23;29.29;95044.63;5050296;28;20482;-72
2022/05/06 11:33:02;;;;;;;4.77;4.50;;;;;;;25.34;29.64;95051.53;5066698;28;20441;-73
2022/05/06 11:35:28;;;;;;;4.33;4.13;;;;;;;25.19;29.32;95036.31;5065750;28;20274;-73
2022/05/06 11:37:53;;;;;;;4.40;3.57;;;;;;;25.52;29.07;95036.69;5067332;28;20417;-73
2022/05/06 11:40:34;;;;;;;3.73;3.53;;;;;;;25.81;28.18;95039.38;5065690;28;20182;-73
2022/05/06 11:43:01;;;;;;;4.40;4.07;;;;;;;25.88;28.47;95037.19;5062538;28;20190;-73
2022/05/06 11:48:31;;;;;;;6.70;4.33;;;;;;;26.19;27.71;95034.25;5090442;28;20437;-74
2022/05/06 11:51:00;;;;;;;4.00;3.80;;;;;;;26.47;27.12;95037.19;5082395;28;20927;-74
2022/05/06 11:53:27;;;;;;;4.30;3.67;;;;;;;26.53;26.80;95035.25;5075110;28;20178;-73
2022/05/06 11:55:55;;;;;;;4.50;4.10;;;;;;;26.24;26.90;95031.53;5066091;28;20437;-73
2022/05/06 11:58:21;;;;;;;3.33;3.13;;;;;;;27.00;26.08;95031.75;5065729;28;21040;-72
2022/05/06 12:00:50;;;;;;;5.00;3.73;;;;;;;27.10;25.59;95024.66;5053054;28;20921;-74
2022/05/06 12:03:15;;;;;;;8.10;4.00;;;;;;;26.36;26.97;95022.28;5061115;28;20531;-74
2022/05/06 12:05:41;;;;;;;5.00;3.80;;;;;;;26.52;26.43;95023.69;5059725;28;20437;-73
2022/05/06 12:08:08;;;;;;;18.43;5.13;;;;;;;27.12;27.53;95022.47;5066350;28;20262;-74
2022/05/06 12:10:38;;;;;;;8.33;3.63;;;;;;;26.51;25.29;95019.44;5065436;28;20523;-74
2022/05/06 12:13:07;;;;;;;14.00;4.93;;;;;;;27.51;24.87;95014.16;5065953;28;20405;-75
2022/05/06 12:15:37;;;;;;;15.80;4.17;;;;;;;28.12;24.30;95006.97;5065986;28;20470;-74
2022/05/06 12:18:07;;;;;;;7.30;3.80;;;;;;;28.73;23.59;95006.94;5054722;28;20412;-74
2022/05/06 12:20:35;;;;;;;4.60;3.47;;;;;;;27.71;25.48;95007.63;5064417;28;20448;-75